sensor_id;sensor_type;location;lat;lon;timestamp;pressure;altitude;pressure_sealevel;temperature;humidity
63287;BME280;49410;55.708;37.522;2023-02-28T00:02:15;99867.28;;;-7.06;nan
63287;BME280;49410;55.708;37.522;2023-02-28T00:04:43;99897.75;;;-6.90;nan
63287;BME280;49410;55.708;37.522;2023-02-28T00:07:09;99902.94;;;-6.87;nan
63287;BME280;49410;55.708;37.522;2023-02-28T00:09:35;99884.28;;;-7.10;nan
63287;BME280;49410;55.708;37.522;2023-02-28T00:12:00;99896.81;;;-6.89;nan
63287;BME280;49410;55.708;37.522;2023-02-28T00:14:38;99897.84;;;-6.93;nan
63287;BME280;49410;55.708;37.522;2023-02-28T00:17:34;99899.19;;;-6.81;nan
63287;BME280;49410;55.708;37.522;2023-02-28T00:20:00;99880.91;;;-6.90;nan
63287;BME280;49410;55.708;37.522;2023-02-28T00:22:30;99870.31;;;-7.17;nan
63287;BME280;49410;55.708;37.522;2023-02-28T00:24:55;99876.66;;;-6.96;nan
63287;BME280;49410;55.708;37.522;2023-02-28T00:27:21;99864.50;;;-7.03;nan
63287;BME280;49410;55.708;37.522;2023-02-28T00:29:46;99875.22;;;-7.05;nan
63287;BME280;49410;55.708;37.522;2023-02-28T00:32:12;99880.09;;;-7.18;nan
63287;BME280;49410;55.708;37.522;2023-02-28T00:34:37;99884.91;;;-7.29;nan
63287;BME280;49410;55.708;37.522;2023-02-28T00:37:05;99881.75;;;-7.40;nan
63287;BME280;49410;55.708;37.522;2023-02-28T00:39:31;99867.53;;;-7.39;nan
63287;BME280;49410;55.708;37.522;2023-02-28T00:41:56;99867.84;;;-7.49;nan
63287;BME280;49410;55.708;37.522;2023-02-28T00:44:25;99868.03;;;-7.55;nan
63287;BME280;49410;55.708;37.522;2023-02-28T00:46:50;99854.59;;;-7.50;nan
63287;BME280;49410;55.708;37.522;2023-02-28T00:49:17;99864.97;;;-7.42;nan
63287;BME280;49410;55.708;37.522;2023-02-28T00:51:46;99874.09;;;-7.50;nan
63287;BME280;49410;55.708;37.522;2023-02-28T00:54:12;99868.66;;;-7.46;nan
63287;BME280;49410;55.708;37.522;2023-02-28T00:56:37;99846.63;;;-7.50;nan
63287;BME280;49410;55.708;37.522;2023-02-28T00:59:03;99847.25;;;-7.69;nan
63287;BME280;49410;55.708;37.522;2023-02-28T01:01:28;99856.09;;;-7.68;nan
63287;BME280;49410;55.708;37.522;2023-02-28T01:03:54;99852.34;;;-7.62;nan
63287;BME280;49410;55.708;37.522;2023-02-28T01:06:20;99852.81;;;-7.76;nan
63287;BME280;49410;55.708;37.522;2023-02-28T01:08:45;99842.75;;;-7.67;nan
63287;BME280;49410;55.708;37.522;2023-02-28T01:11:12;99833.13;;;-7.69;nan
63287;BME280;49410;55.708;37.522;2023-02-28T01:13:40;99837.97;;;-7.55;nan
63287;BME280;49410;55.708;37.522;2023-02-28T01:16:06;99829.72;;;-7.47;nan
63287;BME280;49410;55.708;37.522;2023-02-28T01:18:32;99806.94;;;-7.55;nan
63287;BME280;49410;55.708;37.522;2023-02-28T01:20:57;99811.09;;;-7.47;nan
63287;BME280;49410;55.708;37.522;2023-02-28T01:23:23;99799.78;;;-7.53;nan
63287;BME280;49410;55.708;37.522;2023-02-28T01:25:50;99800.34;;;-7.43;nan
63287;BME280;49410;55.708;37.522;2023-02-28T01:28:16;99801.31;;;-7.45;nan
63287;BME280;49410;55.708;37.522;2023-02-28T01:30:41;99792.41;;;-7.44;nan
63287;BME280;49410;55.708;37.522;2023-02-28T01:33:07;99782.94;;;-7.52;nan
63287;BME280;49410;55.708;37.522;2023-02-28T01:35:33;99775.81;;;-7.51;nan
63287;BME280;49410;55.708;37.522;2023-02-28T01:37:59;99794.69;;;-7.59;nan
63287;BME280;49410;55.708;37.522;2023-02-28T01:40:24;99768.75;;;-7.52;nan
63287;BME280;49410;55.708;37.522;2023-02-28T01:42:50;99781.63;;;-7.40;nan
63287;BME280;49410;55.708;37.522;2023-02-28T01:45:31;99769.25;;;-7.41;nan
63287;BME280;49410;55.708;37.522;2023-02-28T01:48:05;99770.06;;;-7.39;nan
63287;BME280;49410;55.708;37.522;2023-02-28T01:50:37;99758.75;;;-7.44;nan
63287;BME280;49410;55.708;37.522;2023-02-28T01:53:07;99747.03;;;-7.38;nan
63287;BME280;49410;55.708;37.522;2023-02-28T01:55:34;99725.97;;;-7.44;nan
63287;BME280;49410;55.708;37.522;2023-02-28T01:58:02;99738.94;;;-7.35;nan
63287;BME280;49410;55.708;37.522;2023-02-28T02:00:30;99736.59;;;-7.44;nan
63287;BME280;49410;55.708;37.522;2023-02-28T02:02:58;99721.16;;;-7.58;nan
63287;BME280;49410;55.708;37.522;2023-02-28T02:05:26;99743.75;;;-7.46;nan
63287;BME280;49410;55.708;37.522;2023-02-28T02:08:02;99723.97;;;-7.63;nan
63287;BME280;49410;55.708;37.522;2023-02-28T02:10:42;99730.16;;;-7.62;nan
63287;BME280;49410;55.708;37.522;2023-02-28T02:16:40;99699.38;;;-7.68;nan
63287;BME280;49410;55.708;37.522;2023-02-28T02:19:41;99710.88;;;-7.68;nan
63287;BME280;49410;55.708;37.522;2023-02-28T02:36:18;99677.81;;;-7.84;nan
63287;BME280;49410;55.708;37.522;2023-02-28T02:44:06;99688.97;;;-7.74;nan
63287;BME280;49410;55.708;37.522;2023-02-28T02:46:45;99688.59;;;-7.89;nan
63287;BME280;49410;55.708;37.522;2023-02-28T02:49:20;99670.13;;;-7.92;nan
63287;BME280;49410;55.708;37.522;2023-02-28T02:51:47;99676.88;;;-7.83;nan
63287;BME280;49410;55.708;37.522;2023-02-28T02:54:21;99666.53;;;-7.91;nan
63287;BME280;49410;55.708;37.522;2023-02-28T02:56:48;99649.78;;;-7.93;nan
63287;BME280;49410;55.708;37.522;2023-02-28T02:59:18;99666.38;;;-7.86;nan
63287;BME280;49410;55.708;37.522;2023-02-28T03:01:55;99628.78;;;-7.99;nan
63287;BME280;49410;55.708;37.522;2023-02-28T03:04:23;99645.13;;;-7.86;nan
63287;BME280;49410;55.708;37.522;2023-02-28T03:06:51;99635.50;;;-7.89;nan
63287;BME280;49410;55.708;37.522;2023-02-28T03:09:23;99620.91;;;-8.02;nan
63287;BME280;49410;55.708;37.522;2023-02-28T03:11:51;99593.72;;;-8.09;nan
63287;BME280;49410;55.708;37.522;2023-02-28T03:30:25;99611.13;;;-7.76;nan
63287;BME280;49410;55.708;37.522;2023-02-28T03:33:03;99604.41;;;-7.87;nan
63287;BME280;49410;55.708;37.522;2023-02-28T03:35:35;99571.38;;;-8.03;nan
63287;BME280;49410;55.708;37.522;2023-02-28T03:38:08;99578.28;;;-7.98;nan
63287;BME280;49410;55.708;37.522;2023-02-28T03:40:42;99592.78;;;-7.83;nan
63287;BME280;49410;55.708;37.522;2023-02-28T03:43:12;99571.69;;;-7.87;nan
63287;BME280;49410;55.708;37.522;2023-02-28T03:45:41;99575.50;;;-7.94;nan
63287;BME280;49410;55.708;37.522;2023-02-28T03:48:15;99575.28;;;-7.88;nan
63287;BME280;49410;55.708;37.522;2023-02-28T03:50:48;99557.78;;;-7.94;nan
63287;BME280;49410;55.708;37.522;2023-02-28T03:53:28;99580.34;;;-7.82;nan
63287;BME280;49410;55.708;37.522;2023-02-28T03:56:13;99567.59;;;-7.72;nan
63287;BME280;49410;55.708;37.522;2023-02-28T04:01:47;99535.56;;;-7.91;nan
63287;BME280;49410;55.708;37.522;2023-02-28T04:04:14;99539.13;;;-7.92;nan
63287;BME280;49410;55.708;37.522;2023-02-28T04:06:40;99514.19;;;-8.12;nan
63287;BME280;49410;55.708;37.522;2023-02-28T04:09:07;99537.13;;;-7.86;nan
63287;BME280;49410;55.708;37.522;2023-02-28T04:14:04;99497.59;;;-7.93;nan
63287;BME280;49410;55.708;37.522;2023-02-28T04:16:31;99516.84;;;-7.88;nan
63287;BME280;49410;55.708;37.522;2023-02-28T04:18:57;99513.56;;;-7.95;nan
63287;BME280;49410;55.708;37.522;2023-02-28T04:21:34;99506.47;;;-7.94;nan
63287;BME280;49410;55.708;37.522;2023-02-28T04:23:59;99515.41;;;-7.97;nan
63287;BME280;49410;55.708;37.522;2023-02-28T04:26:36;99512.25;;;-8.07;nan
63287;BME280;49410;55.708;37.522;2023-02-28T04:29:03;99526.56;;;-7.87;nan
63287;BME280;49410;55.708;37.522;2023-02-28T04:31:29;99532.34;;;-7.76;nan
63287;BME280;49410;55.708;37.522;2023-02-28T04:33:55;99513.91;;;-7.81;nan
63287;BME280;49410;55.708;37.522;2023-02-28T04:36:20;99484.63;;;-8.03;nan
63287;BME280;49410;55.708;37.522;2023-02-28T04:38:48;99501.38;;;-7.77;nan
63287;BME280;49410;55.708;37.522;2023-02-28T04:41:14;99498.56;;;-7.72;nan
63287;BME280;49410;55.708;37.522;2023-02-28T04:43:39;99488.59;;;-7.67;nan
63287;BME280;49410;55.708;37.522;2023-02-28T04:46:05;99492.78;;;-7.60;nan
63287;BME280;49410;55.708;37.522;2023-02-28T04:48:34;99495.19;;;-7.54;nan
63287;BME280;49410;55.708;37.522;2023-02-28T04:51:04;99494.00;;;-7.46;nan
63287;BME280;49410;55.708;37.522;2023-02-28T04:53:30;99485.91;;;-7.43;nan
63287;BME280;49410;55.708;37.522;2023-02-28T04:55:57;99472.03;;;-7.28;nan
63287;BME280;49410;55.708;37.522;2023-02-28T04:58:23;99457.84;;;-7.28;nan
63287;BME280;49410;55.708;37.522;2023-02-28T05:00:49;99455.63;;;-7.17;nan
63287;BME280;49410;55.708;37.522;2023-02-28T05:03:15;99467.47;;;-7.04;nan
63287;BME280;49410;55.708;37.522;2023-02-28T05:05:40;99467.59;;;-7.07;nan
63287;BME280;49410;55.708;37.522;2023-02-28T05:08:06;99458.78;;;-7.07;nan
63287;BME280;49410;55.708;37.522;2023-02-28T05:10:31;99453.91;;;-6.97;nan
63287;BME280;49410;55.708;37.522;2023-02-28T05:12:57;99438.78;;;-6.95;nan
63287;BME280;49410;55.708;37.522;2023-02-28T05:15:23;99444.50;;;-6.84;nan
63287;BME280;49410;55.708;37.522;2023-02-28T05:17:49;99448.88;;;-6.83;nan
63287;BME280;49410;55.708;37.522;2023-02-28T05:20:15;99432.66;;;-6.77;nan
63287;BME280;49410;55.708;37.522;2023-02-28T05:22:41;99419.66;;;-6.64;nan
63287;BME280;49410;55.708;37.522;2023-02-28T05:25:11;99403.09;;;-6.71;nan
63287;BME280;49410;55.708;37.522;2023-02-28T05:27:38;99403.06;;;-6.69;nan
63287;BME280;49410;55.708;37.522;2023-02-28T05:30:05;99394.91;;;-6.66;nan
63287;BME280;49410;55.708;37.522;2023-02-28T05:32:31;99398.56;;;-6.48;nan
63287;BME280;49410;55.708;37.522;2023-02-28T05:34:56;99392.19;;;-6.44;nan
63287;BME280;49410;55.708;37.522;2023-02-28T05:37:22;99395.97;;;-6.49;nan
63287;BME280;49410;55.708;37.522;2023-02-28T05:39:47;99386.13;;;-6.47;nan
63287;BME280;49410;55.708;37.522;2023-02-28T05:42:13;99372.78;;;-6.66;nan
63287;BME280;49410;55.708;37.522;2023-02-28T05:44:38;99358.25;;;-6.59;nan
63287;BME280;49410;55.708;37.522;2023-02-28T05:47:04;99366.00;;;-6.53;nan
63287;BME280;49410;55.708;37.522;2023-02-28T05:49:29;99348.13;;;-6.51;nan
63287;BME280;49410;55.708;37.522;2023-02-28T05:51:55;99360.25;;;-6.44;nan
63287;BME280;49410;55.708;37.522;2023-02-28T05:54:20;99349.03;;;-6.31;nan
63287;BME280;49410;55.708;37.522;2023-02-28T05:56:46;99319.22;;;-6.40;nan
63287;BME280;49410;55.708;37.522;2023-02-28T05:59:12;99347.44;;;-6.16;nan
63287;BME280;49410;55.708;37.522;2023-02-28T06:01:40;99321.09;;;-6.03;nan
63287;BME280;49410;55.708;37.522;2023-02-28T06:04:08;99328.25;;;-5.69;nan
63287;BME280;49410;55.708;37.522;2023-02-28T06:06:35;99322.69;;;-5.64;nan
63287;BME280;49410;55.708;37.522;2023-02-28T06:09:01;99321.63;;;-5.42;nan
63287;BME280;49410;55.708;37.522;2023-02-28T06:11:27;99298.91;;;-5.32;nan
63287;BME280;49410;55.708;37.522;2023-02-28T06:13:56;99299.97;;;-5.19;nan
63287;BME280;49410;55.708;37.522;2023-02-28T06:16:24;99285.84;;;-5.03;nan
63287;BME280;49410;55.708;37.522;2023-02-28T06:18:49;99300.13;;;-5.04;nan
63287;BME280;49410;55.708;37.522;2023-02-28T06:21:15;99284.19;;;-5.06;nan
63287;BME280;49410;55.708;37.522;2023-02-28T06:23:40;99284.91;;;-5.02;nan
63287;BME280;49410;55.708;37.522;2023-02-28T06:26:06;99286.81;;;-4.88;nan
63287;BME280;49410;55.708;37.522;2023-02-28T06:28:33;99269.72;;;-4.84;nan
63287;BME280;49410;55.708;37.522;2023-02-28T06:30:58;99279.47;;;-4.67;nan
63287;BME280;49410;55.708;37.522;2023-02-28T06:33:24;99266.75;;;-4.62;nan
63287;BME280;49410;55.708;37.522;2023-02-28T06:35:50;99264.78;;;-4.42;nan
63287;BME280;49410;55.708;37.522;2023-02-28T06:38:16;99257.88;;;-4.46;nan
63287;BME280;49410;55.708;37.522;2023-02-28T06:40:41;99258.13;;;-4.35;nan
63287;BME280;49410;55.708;37.522;2023-02-28T06:43:07;99263.75;;;-4.24;nan
63287;BME280;49410;55.708;37.522;2023-02-28T06:45:33;99245.91;;;-4.23;nan
63287;BME280;49410;55.708;37.522;2023-02-28T06:47:58;99249.00;;;-3.99;nan
63287;BME280;49410;55.708;37.522;2023-02-28T06:50:25;99240.81;;;-4.12;nan
63287;BME280;49410;55.708;37.522;2023-02-28T06:52:52;99227.22;;;-4.07;nan
63287;BME280;49410;55.708;37.522;2023-02-28T06:55:19;99220.72;;;-4.03;nan
63287;BME280;49410;55.708;37.522;2023-02-28T06:57:44;99229.78;;;-4.06;nan
63287;BME280;49410;55.708;37.522;2023-02-28T07:00:11;99192.69;;;-3.96;nan
63287;BME280;49410;55.708;37.522;2023-02-28T07:02:37;99175.00;;;-3.82;nan
63287;BME280;49410;55.708;37.522;2023-02-28T07:05:03;99185.84;;;-3.85;nan
63287;BME280;49410;55.708;37.522;2023-02-28T07:07:29;99156.00;;;-3.92;nan
63287;BME280;49410;55.708;37.522;2023-02-28T07:09:54;99173.50;;;-4.02;nan
63287;BME280;49410;55.708;37.522;2023-02-28T07:12:20;99163.63;;;-3.86;nan
63287;BME280;49410;55.708;37.522;2023-02-28T07:14:46;99174.44;;;-3.73;nan
63287;BME280;49410;55.708;37.522;2023-02-28T07:17:11;99158.97;;;-3.82;nan
63287;BME280;49410;55.708;37.522;2023-02-28T07:19:37;99159.72;;;-3.80;nan
63287;BME280;49410;55.708;37.522;2023-02-28T07:22:04;99138.06;;;-3.61;nan
63287;BME280;49410;55.708;37.522;2023-02-28T07:24:30;99148.69;;;-3.60;nan
63287;BME280;49410;55.708;37.522;2023-02-28T07:26:55;99151.94;;;-3.54;nan
63287;BME280;49410;55.708;37.522;2023-02-28T07:29:21;99134.94;;;-3.53;nan
63287;BME280;49410;55.708;37.522;2023-02-28T07:31:46;99152.63;;;-3.36;nan
63287;BME280;49410;55.708;37.522;2023-02-28T07:34:13;99120.34;;;-3.48;nan
63287;BME280;49410;55.708;37.522;2023-02-28T07:36:39;99126.38;;;-3.30;nan
63287;BME280;49410;55.708;37.522;2023-02-28T07:39:04;99129.34;;;-3.34;nan
63287;BME280;49410;55.708;37.522;2023-02-28T07:41:30;99112.72;;;-3.54;nan
63287;BME280;49410;55.708;37.522;2023-02-28T07:43:59;99094.94;;;-3.26;nan
63287;BME280;49410;55.708;37.522;2023-02-28T07:46:25;99108.91;;;-3.21;nan
63287;BME280;49410;55.708;37.522;2023-02-28T07:48:50;99115.53;;;-2.99;nan
63287;BME280;49410;55.708;37.522;2023-02-28T07:51:16;99103.31;;;-3.03;nan
63287;BME280;49410;55.708;37.522;2023-02-28T07:56:44;99092.88;;;-2.93;nan
63287;BME280;49410;55.708;37.522;2023-02-28T07:59:10;99098.03;;;-2.90;nan
63287;BME280;49410;55.708;37.522;2023-02-28T08:01:35;99091.91;;;-2.92;nan
63287;BME280;49410;55.708;37.522;2023-02-28T08:04:00;99104.63;;;-2.54;nan
63287;BME280;49410;55.708;37.522;2023-02-28T08:06:26;99100.78;;;-2.77;nan
63287;BME280;49410;55.708;37.522;2023-02-28T08:08:52;99084.88;;;-2.66;nan
63287;BME280;49410;55.708;37.522;2023-02-28T08:11:18;99093.09;;;-2.69;nan
63287;BME280;49410;55.708;37.522;2023-02-28T08:13:45;99091.78;;;-2.76;nan
63287;BME280;49410;55.708;37.522;2023-02-28T08:16:37;99070.19;;;-2.73;nan
63287;BME280;49410;55.708;37.522;2023-02-28T08:19:03;99078.56;;;-2.65;nan
63287;BME280;49410;55.708;37.522;2023-02-28T08:21:29;99043.13;;;-2.56;nan
63287;BME280;49410;55.708;37.522;2023-02-28T08:23:54;99053.81;;;-2.28;nan
63287;BME280;49410;55.708;37.522;2023-02-28T08:26:22;99037.88;;;-2.17;nan
63287;BME280;49410;55.708;37.522;2023-02-28T08:28:48;99031.00;;;-2.08;nan
63287;BME280;49410;55.708;37.522;2023-02-28T08:31:15;99016.69;;;-1.94;nan
63287;BME280;49410;55.708;37.522;2023-02-28T08:33:42;99014.53;;;-2.02;nan
63287;BME280;49410;55.708;37.522;2023-02-28T08:36:10;99001.88;;;-2.00;nan
63287;BME280;49410;55.708;37.522;2023-02-28T08:38:36;98999.50;;;-1.92;nan
63287;BME280;49410;55.708;37.522;2023-02-28T08:41:05;99011.06;;;-1.91;nan
63287;BME280;49410;55.708;37.522;2023-02-28T08:43:33;99016.66;;;-2.07;nan
63287;BME280;49410;55.708;37.522;2023-02-28T08:45:59;99101.41;;;-2.19;nan
63287;BME280;49410;55.708;37.522;2023-02-28T08:48:26;99075.84;;;-2.10;nan
63287;BME280;49410;55.708;37.522;2023-02-28T08:51:03;99073.22;;;-2.25;nan
63287;BME280;49410;55.708;37.522;2023-02-28T08:53:29;99077.75;;;-2.12;nan
63287;BME280;49410;55.708;37.522;2023-02-28T08:56:06;99072.06;;;-2.21;nan
63287;BME280;49410;55.708;37.522;2023-02-28T08:58:33;99071.00;;;-2.05;nan
63287;BME280;49410;55.708;37.522;2023-02-28T09:00:59;99067.97;;;-2.26;nan
63287;BME280;49410;55.708;37.522;2023-02-28T09:03:26;99071.69;;;-2.29;nan
63287;BME280;49410;55.708;37.522;2023-02-28T09:06:00;99046.00;;;-2.59;nan
63287;BME280;49410;55.708;37.522;2023-02-28T09:08:28;99035.00;;;-2.54;nan
63287;BME280;49410;55.708;37.522;2023-02-28T09:10:54;99040.91;;;-2.49;nan
63287;BME280;49410;55.708;37.522;2023-02-28T09:13:22;99046.47;;;-2.52;nan
63287;BME280;49410;55.708;37.522;2023-02-28T09:15:48;99007.53;;;-2.30;nan
63287;BME280;49410;55.708;37.522;2023-02-28T09:18:14;99013.19;;;-2.35;nan
63287;BME280;49410;55.708;37.522;2023-02-28T09:20:40;99010.31;;;-2.19;nan
63287;BME280;49410;55.708;37.522;2023-02-28T09:23:07;99011.59;;;-2.25;nan
63287;BME280;49410;55.708;37.522;2023-02-28T09:25:33;98999.09;;;-2.11;nan
63287;BME280;49410;55.708;37.522;2023-02-28T09:27:58;98991.13;;;-2.13;nan
63287;BME280;49410;55.708;37.522;2023-02-28T09:30:24;98993.19;;;-2.04;nan
63287;BME280;49410;55.708;37.522;2023-02-28T09:32:49;99013.31;;;-2.11;nan
63287;BME280;49410;55.708;37.522;2023-02-28T09:35:22;99003.56;;;-2.25;nan
63287;BME280;49410;55.708;37.522;2023-02-28T09:37:49;99023.72;;;-2.06;nan
63287;BME280;49410;55.708;37.522;2023-02-28T09:40:15;99016.25;;;-2.14;nan
63287;BME280;49410;55.708;37.522;2023-02-28T09:42:46;99018.88;;;-2.27;nan
63287;BME280;49410;55.708;37.522;2023-02-28T09:45:30;99003.88;;;-2.29;nan
63287;BME280;49410;55.708;37.522;2023-02-28T09:48:16;98997.69;;;-2.17;nan
63287;BME280;49410;55.708;37.522;2023-02-28T09:50:48;98998.56;;;-2.04;nan
63287;BME280;49410;55.708;37.522;2023-02-28T09:55:48;98985.25;;;-1.92;nan
63287;BME280;49410;55.708;37.522;2023-02-28T10:01:47;98989.31;;;-1.99;nan
63287;BME280;49410;55.708;37.522;2023-02-28T10:10:36;98970.13;;;-2.06;nan
63287;BME280;49410;55.708;37.522;2023-02-28T10:13:02;98925.34;;;-2.17;nan
63287;BME280;49410;55.708;37.522;2023-02-28T10:15:32;98960.06;;;-2.03;nan
63287;BME280;49410;55.708;37.522;2023-02-28T10:18:04;98944.72;;;-2.00;nan
63287;BME280;49410;55.708;37.522;2023-02-28T10:20:37;98929.06;;;-1.94;nan
63287;BME280;49410;55.708;37.522;2023-02-28T10:23:21;98936.78;;;-1.89;nan
63287;BME280;49410;55.708;37.522;2023-02-28T10:26:03;98914.16;;;-1.98;nan
63287;BME280;49410;55.708;37.522;2023-02-28T10:28:33;98929.28;;;-1.97;nan
63287;BME280;49410;55.708;37.522;2023-02-28T10:30:59;98908.91;;;-1.99;nan
63287;BME280;49410;55.708;37.522;2023-02-28T10:33:29;98913.53;;;-1.89;nan
63287;BME280;49410;55.708;37.522;2023-02-28T10:35:55;98911.28;;;-1.95;nan
63287;BME280;49410;55.708;37.522;2023-02-28T10:38:31;98895.53;;;-1.99;nan
63287;BME280;49410;55.708;37.522;2023-02-28T10:41:30;98909.22;;;-1.91;nan
63287;BME280;49410;55.708;37.522;2023-02-28T10:44:21;98915.66;;;-1.94;nan
63287;BME280;49410;55.708;37.522;2023-02-28T10:46:48;98910.84;;;-1.89;nan
63287;BME280;49410;55.708;37.522;2023-02-28T10:49:21;98900.47;;;-2.19;nan
63287;BME280;49410;55.708;37.522;2023-02-28T10:51:50;98908.72;;;-2.35;nan
63287;BME280;49410;55.708;37.522;2023-02-28T10:54:35;98911.72;;;-2.27;nan
63287;BME280;49410;55.708;37.522;2023-02-28T10:57:22;98904.25;;;-2.35;nan
63287;BME280;49410;55.708;37.522;2023-02-28T11:00:20;98894.50;;;-2.36;nan
63287;BME280;49410;55.708;37.522;2023-02-28T11:02:47;98903.06;;;-2.30;nan
63287;BME280;49410;55.708;37.522;2023-02-28T11:05:31;98891.69;;;-2.34;nan
63287;BME280;49410;55.708;37.522;2023-02-28T11:08:14;98873.59;;;-2.30;nan
63287;BME280;49410;55.708;37.522;2023-02-28T11:10:45;98879.28;;;-2.35;nan
63287;BME280;49410;55.708;37.522;2023-02-28T11:13:20;98861.81;;;-2.41;nan
63287;BME280;49410;55.708;37.522;2023-02-28T11:15:53;98854.84;;;-2.43;nan
63287;BME280;49410;55.708;37.522;2023-02-28T11:18:29;98866.00;;;-2.50;nan
63287;BME280;49410;55.708;37.522;2023-02-28T11:20:58;98834.84;;;-2.51;nan
63287;BME280;49410;55.708;37.522;2023-02-28T11:23:30;98845.72;;;-2.28;nan
63287;BME280;49410;55.708;37.522;2023-02-28T11:26:00;98867.47;;;-2.32;nan
63287;BME280;49410;55.708;37.522;2023-02-28T11:36:19;98839.19;;;-2.24;nan
63287;BME280;49410;55.708;37.522;2023-02-28T11:38:44;98847.66;;;-2.17;nan
63287;BME280;49410;55.708;37.522;2023-02-28T11:47:33;98836.28;;;-2.08;nan
63287;BME280;49410;55.708;37.522;2023-02-28T11:52:51;98824.13;;;-2.00;nan
63287;BME280;49410;55.708;37.522;2023-02-28T12:02:00;98833.50;;;-1.82;nan
63287;BME280;49410;55.708;37.522;2023-02-28T12:11:55;98817.22;;;-1.54;nan
63287;BME280;49410;55.708;37.522;2023-02-28T12:28:51;98816.44;;;-2.05;nan
63287;BME280;49410;55.708;37.522;2023-02-28T12:31:30;98799.84;;;-2.10;nan
63287;BME280;49410;55.708;37.522;2023-02-28T12:34:06;98796.38;;;-1.99;nan
63287;BME280;49410;55.708;37.522;2023-02-28T12:36:33;98796.56;;;-1.90;nan
63287;BME280;49410;55.708;37.522;2023-02-28T12:39:04;98792.50;;;-1.95;nan
63287;BME280;49410;55.708;37.522;2023-02-28T12:41:45;98797.88;;;-1.95;nan
63287;BME280;49410;55.708;37.522;2023-02-28T12:44:17;98795.06;;;-1.94;nan
63287;BME280;49410;55.708;37.522;2023-02-28T12:46:54;98769.50;;;-2.11;nan
63287;BME280;49410;55.708;37.522;2023-02-28T12:49:30;98777.38;;;-2.21;nan
63287;BME280;49410;55.708;37.522;2023-02-28T12:51:59;98775.22;;;-2.28;nan
63287;BME280;49410;55.708;37.522;2023-02-28T12:57:13;98758.16;;;-2.14;nan
63287;BME280;49410;55.708;37.522;2023-02-28T12:59:45;98758.38;;;-2.17;nan
63287;BME280;49410;55.708;37.522;2023-02-28T13:10:12;98701.66;;;-1.87;nan
63287;BME280;49410;55.708;37.522;2023-02-28T13:12:48;98710.06;;;-1.92;nan
63287;BME280;49410;55.708;37.522;2023-02-28T13:15:18;98732.94;;;-1.88;nan
63287;BME280;49410;55.708;37.522;2023-02-28T13:17:52;98715.19;;;-1.89;nan
63287;BME280;49410;55.708;37.522;2023-02-28T13:20:36;98711.06;;;-1.81;nan
63287;BME280;49410;55.708;37.522;2023-02-28T13:26:12;98691.22;;;-2.03;nan
63287;BME280;49410;55.708;37.522;2023-02-28T13:31:22;98698.53;;;-2.05;nan
63287;BME280;49410;55.708;37.522;2023-02-28T13:36:26;98717.75;;;-1.87;nan
63287;BME280;49410;55.708;37.522;2023-02-28T13:39:44;98702.50;;;-1.87;nan
63287;BME280;49410;55.708;37.522;2023-02-28T13:41:43;98694.72;;;-1.90;nan
63287;BME280;49410;55.708;37.522;2023-02-28T13:44:14;98697.28;;;-1.88;nan
63287;BME280;49410;55.708;37.522;2023-02-28T13:51:47;98684.38;;;-2.07;nan
63287;BME280;49410;55.708;37.522;2023-02-28T13:57:39;98684.09;;;-1.91;nan
63287;BME280;49410;55.708;37.522;2023-02-28T14:00:22;98688.47;;;-1.90;nan
63287;BME280;49410;55.708;37.522;2023-02-28T14:03:04;98680.38;;;-2.01;nan
63287;BME280;49410;55.708;37.522;2023-02-28T14:05:34;98688.25;;;-1.87;nan
63287;BME280;49410;55.708;37.522;2023-02-28T14:08:21;98679.34;;;-1.88;nan
63287;BME280;49410;55.708;37.522;2023-02-28T14:11:02;98676.84;;;-1.78;nan
63287;BME280;49410;55.708;37.522;2023-02-28T14:13:45;98685.72;;;-1.77;nan
63287;BME280;49410;55.708;37.522;2023-02-28T14:16:17;98681.66;;;-1.94;nan
63287;BME280;49410;55.708;37.522;2023-02-28T14:18:58;98672.63;;;-1.93;nan
63287;BME280;49410;55.708;37.522;2023-02-28T14:21:33;98676.91;;;-1.91;nan
63287;BME280;49410;55.708;37.522;2023-02-28T14:35:35;98660.84;;;-1.91;nan
63287;BME280;49410;55.708;37.522;2023-02-28T14:38:07;98655.16;;;-1.75;nan
63287;BME280;49410;55.708;37.522;2023-02-28T14:40:39;98647.44;;;-1.91;nan
63287;BME280;49410;55.708;37.522;2023-02-28T14:43:16;98636.38;;;-1.86;nan
63287;BME280;49410;55.708;37.522;2023-02-28T14:45:44;98626.47;;;-1.85;nan
63287;BME280;49410;55.708;37.522;2023-02-28T14:48:16;98621.25;;;-1.87;nan
63287;BME280;49410;55.708;37.522;2023-02-28T14:50:49;98644.53;;;-1.76;nan
63287;BME280;49410;55.708;37.522;2023-02-28T14:53:18;98640.16;;;-1.77;nan
63287;BME280;49410;55.708;37.522;2023-02-28T14:55:46;98626.88;;;-1.79;nan
63287;BME280;49410;55.708;37.522;2023-02-28T14:58:25;98618.59;;;-1.76;nan
63287;BME280;49410;55.708;37.522;2023-02-28T15:00:53;98633.09;;;-1.67;nan
63287;BME280;49410;55.708;37.522;2023-02-28T15:03:20;98626.69;;;-1.64;nan
63287;BME280;49410;55.708;37.522;2023-02-28T15:05:58;98619.97;;;-1.70;nan
63287;BME280;49410;55.708;37.522;2023-02-28T15:08:24;98627.53;;;-1.64;nan
63287;BME280;49410;55.708;37.522;2023-02-28T15:11:01;98637.41;;;-1.64;nan
63287;BME280;49410;55.708;37.522;2023-02-28T15:16:32;98613.72;;;-1.70;nan
63287;BME280;49410;55.708;37.522;2023-02-28T15:19:00;98619.88;;;-1.57;nan
63287;BME280;49410;55.708;37.522;2023-02-28T15:21:40;98617.63;;;-1.75;nan
63287;BME280;49410;55.708;37.522;2023-02-28T15:26:54;98627.16;;;-1.59;nan
63287;BME280;49410;55.708;37.522;2023-02-28T15:29:23;98620.19;;;-1.73;nan
63287;BME280;49410;55.708;37.522;2023-02-28T15:31:54;98604.97;;;-1.61;nan
63287;BME280;49410;55.708;37.522;2023-02-28T15:34:42;98616.69;;;-1.51;nan
63287;BME280;49410;55.708;37.522;2023-02-28T15:37:52;98620.59;;;-1.55;nan
63287;BME280;49410;55.708;37.522;2023-02-28T15:40:15;98617.06;;;-1.56;nan
63287;BME280;49410;55.708;37.522;2023-02-28T15:43:13;98608.53;;;-1.49;nan
63287;BME280;49410;55.708;37.522;2023-02-28T15:45:45;98603.19;;;-1.38;nan
63287;BME280;49410;55.708;37.522;2023-02-28T15:48:21;98616.72;;;-1.39;nan
63287;BME280;49410;55.708;37.522;2023-02-28T15:50:52;98600.41;;;-1.25;nan
63287;BME280;49410;55.708;37.522;2023-02-28T15:53:25;98596.34;;;-1.53;nan
63287;BME280;49410;55.708;37.522;2023-02-28T15:56:00;98605.75;;;-1.36;nan